»·PEaware :: N90WE KFLG-KELP

N90WE :: KFLG-KELP

FLIGHT INFORMATION

Flight Status: Arrived
Operator: Privately registered:
United States
More flights under this callsign
Pilot: Anonymous 5456 (5456)
Aircraft: BEECH AIRCRAFT SUPER KING AIR COMMUTER
(BE20)
More flights by this aircraft type
Origin: KFLG Flagstaff Pulliam
United States
Destination: KELP El Paso Intl
United States
More flights between these airports :: More routes between these airports
Route: +INW J86 ELP
File this flight plan on PilotEdge
Remarks:
Altitude:
(Current/Filed)
25,000ft
Speed:
(Current/Filed)
280kts
Departed: 28-Aug-17 06:34 PM
Arrived: 28-Aug-17 08:07 PM
Distance/Time
Traveled:
332nm/1:33
Distance/Time
To Go:
Arrived

Flight Plot

Page will automatically refresh every two minutes.

Flight plan parsing failed; only flown route is shown


Map Options




Map Legend


Flown Route
Filed Route
Departure Airport
Arrival Airport
Navaid (VOR, NDB)
Fix

Horizontal Profiles

Position Reports

Time Latitude Longitude Heading Altitude Ground
Speed
28-Aug-17 18:19 35.136675 -111.676045 217 7015ft 0kts
28-Aug-17 18:20 35.136675 -111.676045 217 7015ft 0kts
28-Aug-17 18:21 35.136675 -111.676045 217 7015ft 0kts
28-Aug-17 18:22 35.136675 -111.676045 217 7015ft 0kts
28-Aug-17 18:23 35.136675 -111.676045 217 7015ft 0kts
28-Aug-17 18:24 35.136675 -111.676045 217 7015ft 0kts
28-Aug-17 18:25 35.136675 -111.676045 217 7015ft 0kts
28-Aug-17 18:26 35.136675 -111.676045 217 7015ft 0kts
28-Aug-17 18:27 35.136675 -111.676045 217 7015ft 0kts
28-Aug-17 18:28 35.136675 -111.676045 217 7015ft 0kts
28-Aug-17 18:29 35.136675 -111.676045 217 7015ft 0kts
28-Aug-17 18:30 35.136675 -111.676045 217 7015ft 0kts
28-Aug-17 18:31 35.136660 -111.676060 217 7015ft 0kts
28-Aug-17 18:32 35.136736 -111.674959 39 7015ft 7kts
28-Aug-17 18:33 35.139217 -111.672304 36 7014ft 20kts
28-Aug-17 18:34 35.143256 -111.667994 40 7015ft 19kts
28-Aug-17 18:35 35.146784 -111.664253 39 7015ft 13kts
28-Aug-17 18:36 35.149648 -111.661225 37 7015ft 19kts
28-Aug-17 18:37 35.149109 -111.659986 222 7015ft 0kts
28-Aug-17 18:38 35.134671 -111.675381 221 7221ft 145kts
28-Aug-17 18:39 35.098080 -111.686350 125 9200ft 167kts
28-Aug-17 18:40 35.091886 -111.629271 91 10478ft 205kts
28-Aug-17 18:41 35.089330 -111.556439 90 11700ft 221kts
28-Aug-17 18:42 35.086769 -111.481980 90 12988ft 222kts
28-Aug-17 18:43 35.084190 -111.406954 90 14241ft 222kts
28-Aug-17 18:44 35.081658 -111.334118 90 15407ft 221kts
28-Aug-17 18:45 35.079040 -111.259957 90 16534ft 221kts
28-Aug-17 18:46 35.076382 -111.185859 90 17583ft 218kts
28-Aug-17 18:47 35.073712 -111.112469 90 18524ft 213kts
28-Aug-17 18:48 35.071059 -111.041465 89 19008ft 210kts
28-Aug-17 18:49 35.068397 -110.970638 89 19391ft 210kts
28-Aug-17 18:50 35.065661 -110.899060 89 19820ft 213kts
28-Aug-17 18:51 35.063283 -110.837471 88 20197ft 213kts
28-Aug-17 18:52 35.062372 -110.813988 88 20337ft 213kts
28-Aug-17 18:53 35.031445 -110.750597 125 20768ft 225kts
28-Aug-17 18:54 34.991653 -110.691358 126 21211ft 227kts
28-Aug-17 18:55 34.951483 -110.631968 126 21630ft 226kts
28-Aug-17 18:56 34.911514 -110.573029 126 21980ft 225kts
28-Aug-17 18:57 34.884221 -110.532844 127 22196ft 226kts
28-Aug-17 18:58 34.846609 -110.477610 127 22474ft 226kts
28-Aug-17 18:59 34.806481 -110.418748 127 22759ft 226kts
28-Aug-17 19:00 34.766448 -110.360091 126 23031ft 226kts
28-Aug-17 19:01 34.726910 -110.302215 127 23129ft 233kts
28-Aug-17 19:02 34.684644 -110.240481 127 23060ft 243kts
28-Aug-17 19:03 34.641084 -110.177008 127 23012ft 246kts
28-Aug-17 19:04 34.597175 -110.113132 127 23000ft 248kts
28-Aug-17 19:05 34.552442 -110.048170 127 23001ft 255kts
28-Aug-17 19:06 34.507801 -109.983409 128 22998ft 248kts
28-Aug-17 19:07 34.464073 -109.920201 128 22999ft 244kts
28-Aug-17 19:08 34.420758 -109.857638 128 23049ft 241kts
28-Aug-17 19:09 34.377816 -109.795710 128 23098ft 240kts
28-Aug-17 19:10 34.334879 -109.733890 128 23106ft 240kts
28-Aug-17 19:11 34.291673 -109.671795 128 23083ft 242kts
28-Aug-17 19:12 34.248607 -109.610022 128 23107ft 241kts
28-Aug-17 19:13 34.205770 -109.548692 128 23221ft 237kts
28-Aug-17 19:14 34.163375 -109.488081 128 23323ft 236kts
28-Aug-17 19:15 34.120877 -109.427419 128 23373ft 237kts
28-Aug-17 19:16 34.078370 -109.366849 128 23372ft 234kts
28-Aug-17 19:17 34.036876 -109.307832 128 23375ft 232kts
28-Aug-17 19:18 33.995525 -109.249108 128 23375ft 231kts
28-Aug-17 19:19 33.953978 -109.190209 128 23375ft 230kts
28-Aug-17 19:20 33.912629 -109.131765 128 23375ft 230kts
28-Aug-17 19:21 33.872609 -109.075236 127 23375ft 229kts
28-Aug-17 19:22 33.831454 -109.017184 127 23375ft 227kts
28-Aug-17 19:23 33.790619 -108.959673 127 23374ft 226kts
28-Aug-17 19:24 33.749814 -108.902217 127 23374ft 226kts
28-Aug-17 19:25 33.709183 -108.845145 127 23374ft 225kts
28-Aug-17 19:26 33.668413 -108.787986 127 23374ft 225kts
28-Aug-17 19:27 33.627864 -108.731240 127 23373ft 225kts
28-Aug-17 19:28 33.587103 -108.674283 127 23372ft 225kts
28-Aug-17 19:29 33.546308 -108.617370 127 23361ft 225kts
28-Aug-17 19:30 33.505483 -108.560501 127 23338ft 226kts
28-Aug-17 19:31 33.464433 -108.503410 127 23302ft 226kts
28-Aug-17 19:32 33.423379 -108.446414 127 23272ft 226kts
28-Aug-17 19:33 33.382619 -108.389916 127 23271ft 225kts
28-Aug-17 19:34 33.343308 -108.335510 127 23275ft 225kts
28-Aug-17 19:35 33.302429 -108.279012 127 23275ft 226kts
28-Aug-17 19:36 33.261510 -108.222536 127 23275ft 226kts
28-Aug-17 19:37 33.220412 -108.165924 127 23275ft 226kts
28-Aug-17 19:38 33.179506 -108.109652 127 23275ft 226kts
28-Aug-17 19:39 33.138210 -108.052938 127 23274ft 226kts
28-Aug-17 19:40 33.096969 -107.996441 127 23274ft 226kts
28-Aug-17 19:41 33.054919 -107.941130 137 23275ft 230kts
28-Aug-17 19:42 33.004309 -107.896668 139 23275ft 234kts
28-Aug-17 19:43 32.951419 -107.850507 139 23276ft 238kts
28-Aug-17 19:44 32.898660 -107.804273 139 23276ft 240kts
28-Aug-17 19:45 32.848058 -107.759876 139 23272ft 241kts
28-Aug-17 19:46 32.794245 -107.712639 139 23272ft 241kts
28-Aug-17 19:47 32.740291 -107.665243 139 23240ft 242kts
28-Aug-17 19:48 32.688771 -107.614971 122 23214ft 237kts
28-Aug-17 19:49 32.649164 -107.552423 122 23181ft 237kts
28-Aug-17 19:50 32.609140 -107.490272 122 23175ft 237kts
28-Aug-17 19:51 32.569268 -107.428579 122 23187ft 236kts
28-Aug-17 19:52 32.529589 -107.367298 122 23199ft 235kts
28-Aug-17 19:53 32.490073 -107.306369 123 23214ft 236kts
28-Aug-17 19:54 32.449987 -107.244662 123 23220ft 236kts
28-Aug-17 19:55 32.409946 -107.183128 123 23220ft 237kts
28-Aug-17 19:56 32.367373 -107.117641 123 22217ft 270kts
28-Aug-17 19:57 32.319693 -107.044688 124 20754ft 290kts
28-Aug-17 19:58 32.269653 -106.968328 124 19178ft 298kts
28-Aug-17 19:59 32.218756 -106.890756 124 17593ft 301kts
28-Aug-17 20:00 32.167388 -106.812597 124 16003ft 302kts
28-Aug-17 20:01 32.115832 -106.734275 124 14413ft 302kts
28-Aug-17 20:02 32.061840 -106.662037 152 12789ft 297kts
28-Aug-17 20:03 31.987562 -106.624642 150 11210ft 288kts
28-Aug-17 20:04 31.919641 -106.586390 150 9295ft 245kts
28-Aug-17 20:05 31.866495 -106.552924 139 7336ft 213kts
28-Aug-17 20:06 31.830418 -106.522916 135 6437ft 134kts
28-Aug-17 20:07 31.807515 -106.489278 104 6420ft 130kts
28-Aug-17 20:08 31.804638 -106.449265 88 4924ft 117kts
28-Aug-17 20:09 31.803105 -106.411705 90 4405ft 102kts
28-Aug-17 20:10 31.801789 -106.383359 91 3962ft 43kts
28-Aug-17 20:11 31.800100 -106.381080 134 3962ft 13kts
28-Aug-17 20:12 31.799856 -106.377796 106 3962ft 11kts
28-Aug-17 20:13 31.798335 -106.375779 178 3962ft 7kts
28-Aug-17 20:14 31.798134 -106.376089 262 3962ft 0kts

Navigation Log

Ident Type
Flight plan parsing failed, navigation log unavailable